sensor_id;sensor_type;location;lat;lon;timestamp;P1;durP1;ratioP1;P2;durP2;ratioP2
13327;SDS011;6733;51.044;3.746;2023-04-25T00:02:05;20.03;;;6.60;;
13327;SDS011;6733;51.044;3.746;2023-04-25T00:04:32;14.17;;;5.13;;
13327;SDS011;6733;51.044;3.746;2023-04-25T00:06:59;15.73;;;6.17;;
13327;SDS011;6733;51.044;3.746;2023-04-25T00:09:28;16.97;;;5.67;;
13327;SDS011;6733;51.044;3.746;2023-04-25T00:11:55;14.70;;;6.20;;
13327;SDS011;6733;51.044;3.746;2023-04-25T00:14:21;19.43;;;5.50;;
13327;SDS011;6733;51.044;3.746;2023-04-25T00:16:48;15.77;;;5.77;;
13327;SDS011;6733;51.044;3.746;2023-04-25T00:19:17;14.37;;;5.50;;
13327;SDS011;6733;51.044;3.746;2023-04-25T00:21:43;15.07;;;6.30;;
13327;SDS011;6733;51.044;3.746;2023-04-25T00:24:12;14.87;;;5.13;;
13327;SDS011;6733;51.044;3.746;2023-04-25T00:26:38;14.07;;;5.50;;
13327;SDS011;6733;51.044;3.746;2023-04-25T00:29:04;16.40;;;6.17;;
13327;SDS011;6733;51.044;3.746;2023-04-25T00:31:30;14.63;;;6.13;;
13327;SDS011;6733;51.044;3.746;2023-04-25T00:33:56;14.10;;;5.47;;
13327;SDS011;6733;51.044;3.746;2023-04-25T00:36:22;15.03;;;5.80;;
13327;SDS011;6733;51.044;3.746;2023-04-25T00:38:49;19.73;;;6.47;;
13327;SDS011;6733;51.044;3.746;2023-04-25T00:41:15;19.53;;;6.20;;
13327;SDS011;6733;51.044;3.746;2023-04-25T00:43:41;17.97;;;6.07;;
13327;SDS011;6733;51.044;3.746;2023-04-25T00:46:09;15.37;;;5.57;;
13327;SDS011;6733;51.044;3.746;2023-04-25T00:48:35;16.20;;;5.73;;
13327;SDS011;6733;51.044;3.746;2023-04-25T00:51:01;14.73;;;5.53;;
13327;SDS011;6733;51.044;3.746;2023-04-25T00:53:28;15.97;;;6.00;;
13327;SDS011;6733;51.044;3.746;2023-04-25T00:55:57;15.83;;;5.40;;
13327;SDS011;6733;51.044;3.746;2023-04-25T00:58:24;17.07;;;5.30;;
13327;SDS011;6733;51.044;3.746;2023-04-25T01:00:51;15.63;;;6.13;;
13327;SDS011;6733;51.044;3.746;2023-04-25T01:03:17;15.53;;;5.67;;
13327;SDS011;6733;51.044;3.746;2023-04-25T01:05:47;23.83;;;6.00;;
13327;SDS011;6733;51.044;3.746;2023-04-25T01:08:14;13.90;;;5.40;;
13327;SDS011;6733;51.044;3.746;2023-04-25T01:10:40;13.60;;;6.07;;
13327;SDS011;6733;51.044;3.746;2023-04-25T01:13:07;15.73;;;5.63;;
13327;SDS011;6733;51.044;3.746;2023-04-25T01:15:33;16.10;;;6.33;;
13327;SDS011;6733;51.044;3.746;2023-04-25T01:18:01;14.80;;;5.17;;
13327;SDS011;6733;51.044;3.746;2023-04-25T01:20:27;17.93;;;6.13;;
13327;SDS011;6733;51.044;3.746;2023-04-25T01:22:54;12.67;;;5.47;;
13327;SDS011;6733;51.044;3.746;2023-04-25T01:25:21;13.00;;;6.07;;
13327;SDS011;6733;51.044;3.746;2023-04-25T01:27:47;16.67;;;6.23;;
13327;SDS011;6733;51.044;3.746;2023-04-25T01:30:14;19.43;;;6.97;;
13327;SDS011;6733;51.044;3.746;2023-04-25T01:32:41;13.93;;;6.63;;
13327;SDS011;6733;51.044;3.746;2023-04-25T01:35:09;17.50;;;7.60;;
13327;SDS011;6733;51.044;3.746;2023-04-25T01:37:43;16.93;;;5.77;;
13327;SDS011;6733;51.044;3.746;2023-04-25T01:40:09;17.47;;;6.97;;
13327;SDS011;6733;51.044;3.746;2023-04-25T01:42:41;18.07;;;7.03;;
13327;SDS011;6733;51.044;3.746;2023-04-25T01:45:09;17.23;;;8.07;;
13327;SDS011;6733;51.044;3.746;2023-04-25T01:47:36;18.03;;;6.60;;
13327;SDS011;6733;51.044;3.746;2023-04-25T01:50:05;20.97;;;7.70;;
13327;SDS011;6733;51.044;3.746;2023-04-25T01:52:32;19.33;;;7.07;;
13327;SDS011;6733;51.044;3.746;2023-04-25T01:55:02;15.93;;;6.37;;
13327;SDS011;6733;51.044;3.746;2023-04-25T01:57:28;19.07;;;7.37;;
13327;SDS011;6733;51.044;3.746;2023-04-25T01:59:55;13.90;;;6.53;;
13327;SDS011;6733;51.044;3.746;2023-04-25T02:02:25;19.47;;;7.00;;
13327;SDS011;6733;51.044;3.746;2023-04-25T02:04:51;20.37;;;7.53;;
13327;SDS011;6733;51.044;3.746;2023-04-25T02:07:18;17.30;;;6.77;;
13327;SDS011;6733;51.044;3.746;2023-04-25T02:09:44;19.93;;;7.53;;
13327;SDS011;6733;51.044;3.746;2023-04-25T02:12:10;18.17;;;6.90;;
13327;SDS011;6733;51.044;3.746;2023-04-25T02:14:36;15.50;;;6.20;;
13327;SDS011;6733;51.044;3.746;2023-04-25T02:17:02;17.80;;;6.80;;
13327;SDS011;6733;51.044;3.746;2023-04-25T02:19:29;16.17;;;6.10;;
13327;SDS011;6733;51.044;3.746;2023-04-25T02:21:55;17.97;;;5.50;;
13327;SDS011;6733;51.044;3.746;2023-04-25T02:24:22;20.97;;;6.27;;
13327;SDS011;6733;51.044;3.746;2023-04-25T02:26:48;15.43;;;5.57;;
13327;SDS011;6733;51.044;3.746;2023-04-25T02:29:15;15.33;;;5.97;;
13327;SDS011;6733;51.044;3.746;2023-04-25T02:31:41;18.07;;;5.97;;
13327;SDS011;6733;51.044;3.746;2023-04-25T02:34:08;18.30;;;6.10;;
13327;SDS011;6733;51.044;3.746;2023-04-25T02:37:02;15.23;;;6.53;;
13327;SDS011;6733;51.044;3.746;2023-04-25T02:39:57;20.37;;;6.10;;
13327;SDS011;6733;51.044;3.746;2023-04-25T02:42:52;16.23;;;6.70;;
13327;SDS011;6733;51.044;3.746;2023-04-25T02:45:46;18.83;;;5.70;;
13327;SDS011;6733;51.044;3.746;2023-04-25T02:48:41;16.80;;;6.83;;
13327;SDS011;6733;51.044;3.746;2023-04-25T02:51:35;15.33;;;5.67;;
13327;SDS011;6733;51.044;3.746;2023-04-25T02:54:02;17.47;;;5.53;;
13327;SDS011;6733;51.044;3.746;2023-04-25T02:56:28;18.43;;;5.47;;
13327;SDS011;6733;51.044;3.746;2023-04-25T02:58:54;16.50;;;6.10;;
13327;SDS011;6733;51.044;3.746;2023-04-25T03:01:21;16.47;;;5.70;;
13327;SDS011;6733;51.044;3.746;2023-04-25T03:03:47;14.53;;;6.10;;
13327;SDS011;6733;51.044;3.746;2023-04-25T03:06:13;14.73;;;5.73;;
13327;SDS011;6733;51.044;3.746;2023-04-25T03:08:43;21.67;;;6.27;;
13327;SDS011;6733;51.044;3.746;2023-04-25T03:11:12;22.67;;;6.07;;
13327;SDS011;6733;51.044;3.746;2023-04-25T03:13:38;25.10;;;7.50;;
13327;SDS011;6733;51.044;3.746;2023-04-25T03:16:05;22.67;;;6.13;;
13327;SDS011;6733;51.044;3.746;2023-04-25T03:18:31;19.60;;;6.37;;
13327;SDS011;6733;51.044;3.746;2023-04-25T03:20:57;19.90;;;6.07;;
13327;SDS011;6733;51.044;3.746;2023-04-25T03:23:23;18.07;;;5.50;;
13327;SDS011;6733;51.044;3.746;2023-04-25T03:25:50;21.23;;;5.53;;
13327;SDS011;6733;51.044;3.746;2023-04-25T03:28:16;14.03;;;5.30;;
13327;SDS011;6733;51.044;3.746;2023-04-25T03:30:42;15.20;;;5.47;;
13327;SDS011;6733;51.044;3.746;2023-04-25T03:33:09;14.17;;;5.57;;
13327;SDS011;6733;51.044;3.746;2023-04-25T03:35:35;14.07;;;5.40;;
13327;SDS011;6733;51.044;3.746;2023-04-25T03:38:01;13.63;;;5.07;;
13327;SDS011;6733;51.044;3.746;2023-04-25T03:40:27;10.60;;;4.30;;
13327;SDS011;6733;51.044;3.746;2023-04-25T03:42:53;11.53;;;4.63;;
13327;SDS011;6733;51.044;3.746;2023-04-25T03:45:19;9.60;;;4.00;;
13327;SDS011;6733;51.044;3.746;2023-04-25T03:47:46;10.77;;;4.50;;
13327;SDS011;6733;51.044;3.746;2023-04-25T03:50:12;14.57;;;4.60;;
13327;SDS011;6733;51.044;3.746;2023-04-25T03:52:38;12.27;;;4.53;;
13327;SDS011;6733;51.044;3.746;2023-04-25T03:55:04;13.13;;;4.00;;
13327;SDS011;6733;51.044;3.746;2023-04-25T03:57:31;10.53;;;3.97;;
13327;SDS011;6733;51.044;3.746;2023-04-25T03:59:57;9.47;;;3.93;;
13327;SDS011;6733;51.044;3.746;2023-04-25T04:02:23;13.37;;;4.87;;
13327;SDS011;6733;51.044;3.746;2023-04-25T04:04:49;10.93;;;4.27;;
13327;SDS011;6733;51.044;3.746;2023-04-25T04:07:16;8.97;;;3.73;;
13327;SDS011;6733;51.044;3.746;2023-04-25T04:09:42;12.90;;;4.33;;
13327;SDS011;6733;51.044;3.746;2023-04-25T04:12:08;15.30;;;4.23;;
13327;SDS011;6733;51.044;3.746;2023-04-25T04:14:34;11.57;;;4.20;;
13327;SDS011;6733;51.044;3.746;2023-04-25T04:17:01;9.30;;;4.40;;
13327;SDS011;6733;51.044;3.746;2023-04-25T04:19:27;11.90;;;4.43;;
13327;SDS011;6733;51.044;3.746;2023-04-25T04:21:53;13.13;;;4.87;;
13327;SDS011;6733;51.044;3.746;2023-04-25T04:24:19;15.30;;;4.60;;
13327;SDS011;6733;51.044;3.746;2023-04-25T04:26:45;18.87;;;4.80;;
13327;SDS011;6733;51.044;3.746;2023-04-25T04:29:12;14.60;;;4.67;;
13327;SDS011;6733;51.044;3.746;2023-04-25T04:31:49;16.00;;;5.07;;
13327;SDS011;6733;51.044;3.746;2023-04-25T04:34:16;17.23;;;5.13;;
13327;SDS011;6733;51.044;3.746;2023-04-25T04:36:44;12.03;;;4.47;;
13327;SDS011;6733;51.044;3.746;2023-04-25T04:39:12;9.83;;;4.73;;
13327;SDS011;6733;51.044;3.746;2023-04-25T04:41:38;13.70;;;5.10;;
13327;SDS011;6733;51.044;3.746;2023-04-25T04:44:05;12.27;;;4.70;;
13327;SDS011;6733;51.044;3.746;2023-04-25T04:46:32;14.37;;;5.03;;
13327;SDS011;6733;51.044;3.746;2023-04-25T04:49:04;12.30;;;5.67;;
13327;SDS011;6733;51.044;3.746;2023-04-25T04:51:31;12.83;;;5.10;;
13327;SDS011;6733;51.044;3.746;2023-04-25T04:53:58;18.43;;;4.83;;
13327;SDS011;6733;51.044;3.746;2023-04-25T04:56:30;15.83;;;5.00;;
13327;SDS011;6733;51.044;3.746;2023-04-25T04:58:57;10.33;;;4.73;;
13327;SDS011;6733;51.044;3.746;2023-04-25T05:01:23;14.30;;;4.97;;
13327;SDS011;6733;51.044;3.746;2023-04-25T05:03:50;13.30;;;4.50;;
13327;SDS011;6733;51.044;3.746;2023-04-25T05:06:17;12.50;;;4.73;;
13327;SDS011;6733;51.044;3.746;2023-04-25T05:08:44;13.63;;;4.37;;
13327;SDS011;6733;51.044;3.746;2023-04-25T05:11:11;13.83;;;4.53;;
13327;SDS011;6733;51.044;3.746;2023-04-25T05:13:37;10.40;;;4.27;;
13327;SDS011;6733;51.044;3.746;2023-04-25T05:16:03;20.23;;;6.20;;
13327;SDS011;6733;51.044;3.746;2023-04-25T05:18:29;10.07;;;5.43;;
13327;SDS011;6733;51.044;3.746;2023-04-25T05:20:55;18.40;;;5.87;;
13327;SDS011;6733;51.044;3.746;2023-04-25T05:23:22;15.63;;;5.23;;
13327;SDS011;6733;51.044;3.746;2023-04-25T05:25:48;11.07;;;5.20;;
13327;SDS011;6733;51.044;3.746;2023-04-25T05:28:14;12.77;;;5.27;;
13327;SDS011;6733;51.044;3.746;2023-04-25T05:30:41;19.70;;;5.20;;
13327;SDS011;6733;51.044;3.746;2023-04-25T05:33:07;13.70;;;5.10;;
13327;SDS011;6733;51.044;3.746;2023-04-25T05:35:33;13.57;;;5.90;;
13327;SDS011;6733;51.044;3.746;2023-04-25T05:38:00;12.07;;;5.17;;
13327;SDS011;6733;51.044;3.746;2023-04-25T05:40:26;13.83;;;5.80;;
13327;SDS011;6733;51.044;3.746;2023-04-25T05:42:52;15.30;;;5.97;;
13327;SDS011;6733;51.044;3.746;2023-04-25T05:45:18;12.53;;;5.50;;
13327;SDS011;6733;51.044;3.746;2023-04-25T05:47:45;12.77;;;5.20;;
13327;SDS011;6733;51.044;3.746;2023-04-25T05:50:11;17.80;;;5.53;;
13327;SDS011;6733;51.044;3.746;2023-04-25T05:52:37;11.80;;;5.30;;
13327;SDS011;6733;51.044;3.746;2023-04-25T05:55:04;12.47;;;5.20;;
13327;SDS011;6733;51.044;3.746;2023-04-25T05:57:31;13.10;;;5.50;;
13327;SDS011;6733;51.044;3.746;2023-04-25T05:59:57;16.47;;;5.67;;
13327;SDS011;6733;51.044;3.746;2023-04-25T06:02:23;14.90;;;5.03;;
13327;SDS011;6733;51.044;3.746;2023-04-25T06:04:50;13.80;;;5.53;;
13327;SDS011;6733;51.044;3.746;2023-04-25T06:07:17;14.83;;;5.60;;
13327;SDS011;6733;51.044;3.746;2023-04-25T06:09:44;18.60;;;5.63;;
13327;SDS011;6733;51.044;3.746;2023-04-25T06:12:10;15.90;;;5.17;;
13327;SDS011;6733;51.044;3.746;2023-04-25T06:14:36;14.33;;;4.83;;
13327;SDS011;6733;51.044;3.746;2023-04-25T06:17:03;10.77;;;4.97;;
13327;SDS011;6733;51.044;3.746;2023-04-25T06:19:34;12.80;;;4.10;;
13327;SDS011;6733;51.044;3.746;2023-04-25T06:22:01;14.00;;;3.90;;
13327;SDS011;6733;51.044;3.746;2023-04-25T06:24:28;13.27;;;4.43;;
13327;SDS011;6733;51.044;3.746;2023-04-25T06:26:54;10.10;;;3.90;;
13327;SDS011;6733;51.044;3.746;2023-04-25T06:29:20;11.50;;;4.17;;
13327;SDS011;6733;51.044;3.746;2023-04-25T06:31:46;11.87;;;4.20;;
13327;SDS011;6733;51.044;3.746;2023-04-25T06:34:13;11.10;;;3.47;;
13327;SDS011;6733;51.044;3.746;2023-04-25T06:36:39;10.20;;;3.23;;
13327;SDS011;6733;51.044;3.746;2023-04-25T06:39:07;7.10;;;2.90;;
13327;SDS011;6733;51.044;3.746;2023-04-25T06:41:34;11.57;;;3.50;;
13327;SDS011;6733;51.044;3.746;2023-04-25T06:44:01;13.53;;;3.50;;
13327;SDS011;6733;51.044;3.746;2023-04-25T06:46:27;7.60;;;3.13;;
13327;SDS011;6733;51.044;3.746;2023-04-25T06:48:53;10.13;;;3.33;;
13327;SDS011;6733;51.044;3.746;2023-04-25T06:51:19;9.83;;;3.60;;
13327;SDS011;6733;51.044;3.746;2023-04-25T06:53:45;9.10;;;2.80;;
13327;SDS011;6733;51.044;3.746;2023-04-25T06:56:12;8.30;;;3.60;;
13327;SDS011;6733;51.044;3.746;2023-04-25T06:58:38;10.87;;;4.37;;
13327;SDS011;6733;51.044;3.746;2023-04-25T07:01:04;8.60;;;3.23;;
13327;SDS011;6733;51.044;3.746;2023-04-25T07:03:30;9.27;;;2.87;;
13327;SDS011;6733;51.044;3.746;2023-04-25T07:05:56;14.27;;;3.37;;
13327;SDS011;6733;51.044;3.746;2023-04-25T07:08:23;13.20;;;3.30;;
13327;SDS011;6733;51.044;3.746;2023-04-25T07:10:49;7.00;;;3.00;;
13327;SDS011;6733;51.044;3.746;2023-04-25T07:13:15;10.00;;;3.30;;
13327;SDS011;6733;51.044;3.746;2023-04-25T07:15:41;8.30;;;3.10;;
13327;SDS011;6733;51.044;3.746;2023-04-25T07:18:09;8.57;;;3.27;;
13327;SDS011;6733;51.044;3.746;2023-04-25T07:20:36;7.43;;;3.27;;
13327;SDS011;6733;51.044;3.746;2023-04-25T07:23:02;9.97;;;3.63;;
13327;SDS011;6733;51.044;3.746;2023-04-25T07:25:28;9.47;;;3.30;;
13327;SDS011;6733;51.044;3.746;2023-04-25T07:27:56;14.07;;;3.67;;
13327;SDS011;6733;51.044;3.746;2023-04-25T07:30:22;13.90;;;3.07;;
13327;SDS011;6733;51.044;3.746;2023-04-25T07:32:49;8.83;;;2.63;;
13327;SDS011;6733;51.044;3.746;2023-04-25T07:35:16;7.00;;;2.50;;
13327;SDS011;6733;51.044;3.746;2023-04-25T07:37:43;7.13;;;2.53;;
13327;SDS011;6733;51.044;3.746;2023-04-25T07:40:09;7.97;;;2.67;;
13327;SDS011;6733;51.044;3.746;2023-04-25T07:42:35;9.53;;;2.87;;
13327;SDS011;6733;51.044;3.746;2023-04-25T07:45:02;8.33;;;2.60;;
13327;SDS011;6733;51.044;3.746;2023-04-25T07:47:28;14.27;;;3.30;;
13327;SDS011;6733;51.044;3.746;2023-04-25T07:49:55;9.53;;;3.03;;
13327;SDS011;6733;51.044;3.746;2023-04-25T07:52:23;6.47;;;2.47;;
13327;SDS011;6733;51.044;3.746;2023-04-25T07:54:49;9.97;;;3.00;;
13327;SDS011;6733;51.044;3.746;2023-04-25T07:57:15;11.37;;;3.00;;
13327;SDS011;6733;51.044;3.746;2023-04-25T07:59:42;11.07;;;2.93;;
13327;SDS011;6733;51.044;3.746;2023-04-25T08:02:08;9.70;;;2.50;;
13327;SDS011;6733;51.044;3.746;2023-04-25T08:04:35;8.30;;;2.93;;
13327;SDS011;6733;51.044;3.746;2023-04-25T08:07:01;8.07;;;2.57;;
13327;SDS011;6733;51.044;3.746;2023-04-25T08:09:27;7.40;;;3.37;;
13327;SDS011;6733;51.044;3.746;2023-04-25T08:11:55;8.70;;;2.57;;
13327;SDS011;6733;51.044;3.746;2023-04-25T08:14:21;8.03;;;2.70;;
13327;SDS011;6733;51.044;3.746;2023-04-25T08:16:47;5.27;;;2.20;;
13327;SDS011;6733;51.044;3.746;2023-04-25T08:19:13;8.27;;;2.70;;
13327;SDS011;6733;51.044;3.746;2023-04-25T08:21:39;6.10;;;2.43;;
13327;SDS011;6733;51.044;3.746;2023-04-25T08:24:06;6.07;;;2.50;;
13327;SDS011;6733;51.044;3.746;2023-04-25T08:26:32;13.23;;;2.60;;
13327;SDS011;6733;51.044;3.746;2023-04-25T08:29:00;6.90;;;2.80;;
13327;SDS011;6733;51.044;3.746;2023-04-25T08:31:26;8.30;;;2.77;;
13327;SDS011;6733;51.044;3.746;2023-04-25T08:33:52;5.90;;;2.13;;
13327;SDS011;6733;51.044;3.746;2023-04-25T08:36:19;8.60;;;2.93;;
13327;SDS011;6733;51.044;3.746;2023-04-25T08:38:45;6.27;;;2.20;;
13327;SDS011;6733;51.044;3.746;2023-04-25T08:41:11;4.73;;;2.03;;
13327;SDS011;6733;51.044;3.746;2023-04-25T08:43:39;4.10;;;2.10;;
13327;SDS011;6733;51.044;3.746;2023-04-25T08:46:10;9.03;;;2.30;;
13327;SDS011;6733;51.044;3.746;2023-04-25T08:48:38;7.30;;;2.13;;
13327;SDS011;6733;51.044;3.746;2023-04-25T08:51:07;9.87;;;2.50;;
13327;SDS011;6733;51.044;3.746;2023-04-25T08:53:35;5.40;;;2.10;;
13327;SDS011;6733;51.044;3.746;2023-04-25T08:56:02;7.53;;;2.37;;
13327;SDS011;6733;51.044;3.746;2023-04-25T08:58:28;7.17;;;2.50;;
13327;SDS011;6733;51.044;3.746;2023-04-25T09:00:55;4.80;;;2.33;;
13327;SDS011;6733;51.044;3.746;2023-04-25T09:03:22;4.47;;;1.87;;
13327;SDS011;6733;51.044;3.746;2023-04-25T09:05:48;7.53;;;2.43;;
13327;SDS011;6733;51.044;3.746;2023-04-25T09:08:15;11.93;;;2.40;;
13327;SDS011;6733;51.044;3.746;2023-04-25T09:10:42;5.53;;;2.40;;
13327;SDS011;6733;51.044;3.746;2023-04-25T09:13:09;6.00;;;2.30;;
13327;SDS011;6733;51.044;3.746;2023-04-25T09:15:48;8.63;;;2.60;;
13327;SDS011;6733;51.044;3.746;2023-04-25T09:20:58;7.77;;;2.97;;
13327;SDS011;6733;51.044;3.746;2023-04-25T09:23:39;12.50;;;2.97;;
13327;SDS011;6733;51.044;3.746;2023-04-25T09:26:16;8.63;;;2.87;;
13327;SDS011;6733;51.044;3.746;2023-04-25T09:28:43;14.23;;;3.70;;
13327;SDS011;6733;51.044;3.746;2023-04-25T09:31:11;11.73;;;2.60;;
13327;SDS011;6733;51.044;3.746;2023-04-25T09:33:37;4.47;;;2.30;;
13327;SDS011;6733;51.044;3.746;2023-04-25T09:36:08;5.67;;;2.50;;
13327;SDS011;6733;51.044;3.746;2023-04-25T09:38:40;6.97;;;2.40;;
13327;SDS011;6733;51.044;3.746;2023-04-25T09:41:08;8.63;;;2.87;;
13327;SDS011;6733;51.044;3.746;2023-04-25T09:43:35;7.60;;;2.43;;
13327;SDS011;6733;51.044;3.746;2023-04-25T09:46:02;8.07;;;2.50;;
13327;SDS011;6733;51.044;3.746;2023-04-25T09:48:35;4.83;;;2.20;;
13327;SDS011;6733;51.044;3.746;2023-04-25T09:51:08;5.17;;;2.47;;
13327;SDS011;6733;51.044;3.746;2023-04-25T09:53:44;3.47;;;2.13;;
13327;SDS011;6733;51.044;3.746;2023-04-25T09:56:12;17.83;;;3.93;;
13327;SDS011;6733;51.044;3.746;2023-04-25T09:58:39;6.17;;;2.47;;
13327;SDS011;6733;51.044;3.746;2023-04-25T10:01:07;19.37;;;4.30;;
13327;SDS011;6733;51.044;3.746;2023-04-25T10:03:34;10.63;;;3.27;;
13327;SDS011;6733;51.044;3.746;2023-04-25T10:06:03;5.33;;;2.10;;
13327;SDS011;6733;51.044;3.746;2023-04-25T10:08:35;8.57;;;2.27;;
13327;SDS011;6733;51.044;3.746;2023-04-25T10:11:03;7.50;;;2.70;;
13327;SDS011;6733;51.044;3.746;2023-04-25T10:13:31;5.50;;;2.40;;
13327;SDS011;6733;51.044;3.746;2023-04-25T10:15:58;5.37;;;2.20;;
13327;SDS011;6733;51.044;3.746;2023-04-25T10:18:26;4.60;;;2.10;;
13327;SDS011;6733;51.044;3.746;2023-04-25T10:21:04;3.30;;;1.90;;
13327;SDS011;6733;51.044;3.746;2023-04-25T10:23:31;5.30;;;2.53;;
13327;SDS011;6733;51.044;3.746;2023-04-25T10:25:59;5.53;;;2.30;;
13327;SDS011;6733;51.044;3.746;2023-04-25T10:28:26;5.93;;;2.43;;
13327;SDS011;6733;51.044;3.746;2023-04-25T10:31:00;7.70;;;3.13;;
13327;SDS011;6733;51.044;3.746;2023-04-25T10:33:37;7.90;;;2.30;;
13327;SDS011;6733;51.044;3.746;2023-04-25T10:36:09;8.57;;;2.50;;
13327;SDS011;6733;51.044;3.746;2023-04-25T10:38:36;5.40;;;2.13;;
13327;SDS011;6733;51.044;3.746;2023-04-25T10:41:07;3.73;;;2.10;;
13327;SDS011;6733;51.044;3.746;2023-04-25T10:48:52;5.43;;;1.90;;
13327;SDS011;6733;51.044;3.746;2023-04-25T10:51:19;6.77;;;2.70;;
13327;SDS011;6733;51.044;3.746;2023-04-25T10:56:30;7.33;;;2.70;;
13327;SDS011;6733;51.044;3.746;2023-04-25T10:59:19;2.73;;;1.80;;
13327;SDS011;6733;51.044;3.746;2023-04-25T11:01:47;4.53;;;2.03;;
13327;SDS011;6733;51.044;3.746;2023-04-25T11:07:34;6.57;;;2.30;;
13327;SDS011;6733;51.044;3.746;2023-04-25T11:09:38;7.73;;;2.43;;
13327;SDS011;6733;51.044;3.746;2023-04-25T11:12:07;4.17;;;2.40;;
13327;SDS011;6733;51.044;3.746;2023-04-25T11:14:35;4.07;;;2.43;;
13327;SDS011;6733;51.044;3.746;2023-04-25T11:17:01;9.87;;;2.40;;
13327;SDS011;6733;51.044;3.746;2023-04-25T11:19:28;5.23;;;2.10;;
13327;SDS011;6733;51.044;3.746;2023-04-25T11:21:55;8.47;;;2.47;;
13327;SDS011;6733;51.044;3.746;2023-04-25T11:24:29;5.97;;;2.20;;
13327;SDS011;6733;51.044;3.746;2023-04-25T11:26:57;6.60;;;2.10;;
13327;SDS011;6733;51.044;3.746;2023-04-25T11:29:31;5.23;;;1.83;;
13327;SDS011;6733;51.044;3.746;2023-04-25T11:31:59;3.67;;;1.57;;
13327;SDS011;6733;51.044;3.746;2023-04-25T11:34:27;5.87;;;1.97;;
13327;SDS011;6733;51.044;3.746;2023-04-25T11:36:56;3.50;;;1.90;;
13327;SDS011;6733;51.044;3.746;2023-04-25T11:39:26;4.30;;;1.90;;
13327;SDS011;6733;51.044;3.746;2023-04-25T11:41:53;18.80;;;3.30;;
13327;SDS011;6733;51.044;3.746;2023-04-25T11:44:20;5.80;;;2.20;;
13327;SDS011;6733;51.044;3.746;2023-04-25T11:46:47;6.77;;;2.70;;
13327;SDS011;6733;51.044;3.746;2023-04-25T11:49:14;5.17;;;2.20;;
13327;SDS011;6733;51.044;3.746;2023-04-25T11:51:43;6.17;;;2.47;;
13327;SDS011;6733;51.044;3.746;2023-04-25T11:54:14;5.33;;;2.30;;
13327;SDS011;6733;51.044;3.746;2023-04-25T11:56:41;4.83;;;1.80;;
13327;SDS011;6733;51.044;3.746;2023-04-25T11:59:11;4.90;;;2.20;;
13327;SDS011;6733;51.044;3.746;2023-04-25T12:01:39;5.33;;;1.97;;
13327;SDS011;6733;51.044;3.746;2023-04-25T12:04:10;4.30;;;1.80;;
13327;SDS011;6733;51.044;3.746;2023-04-25T12:06:42;5.13;;;2.00;;
13327;SDS011;6733;51.044;3.746;2023-04-25T12:09:10;5.77;;;2.07;;
13327;SDS011;6733;51.044;3.746;2023-04-25T12:11:43;6.80;;;2.00;;
13327;SDS011;6733;51.044;3.746;2023-04-25T12:14:22;7.17;;;2.00;;
13327;SDS011;6733;51.044;3.746;2023-04-25T12:16:53;4.73;;;2.33;;
13327;SDS011;6733;51.044;3.746;2023-04-25T12:19:23;5.03;;;2.00;;
13327;SDS011;6733;51.044;3.746;2023-04-25T12:21:49;5.63;;;2.60;;
13327;SDS011;6733;51.044;3.746;2023-04-25T12:24:17;10.10;;;2.33;;
13327;SDS011;6733;51.044;3.746;2023-04-25T12:29:21;4.67;;;2.37;;
13327;SDS011;6733;51.044;3.746;2023-04-25T12:31:49;5.23;;;2.10;;
13327;SDS011;6733;51.044;3.746;2023-04-25T12:34:17;4.20;;;2.13;;
13327;SDS011;6733;51.044;3.746;2023-04-25T12:36:44;5.73;;;2.07;;
13327;SDS011;6733;51.044;3.746;2023-04-25T12:39:15;4.63;;;2.53;;
13327;SDS011;6733;51.044;3.746;2023-04-25T12:41:45;3.60;;;2.10;;
13327;SDS011;6733;51.044;3.746;2023-04-25T12:44:12;7.93;;;2.63;;
13327;SDS011;6733;51.044;3.746;2023-04-25T12:46:38;3.93;;;2.20;;
13327;SDS011;6733;51.044;3.746;2023-04-25T12:49:09;3.50;;;2.13;;
13327;SDS011;6733;51.044;3.746;2023-04-25T12:51:35;5.20;;;1.90;;
13327;SDS011;6733;51.044;3.746;2023-04-25T12:54:02;6.40;;;2.70;;
13327;SDS011;6733;51.044;3.746;2023-04-25T12:56:30;5.10;;;2.30;;
13327;SDS011;6733;51.044;3.746;2023-04-25T12:58:57;9.23;;;2.83;;
13327;SDS011;6733;51.044;3.746;2023-04-25T13:01:24;11.37;;;2.80;;
13327;SDS011;6733;51.044;3.746;2023-04-25T13:03:52;3.93;;;2.20;;
13327;SDS011;6733;51.044;3.746;2023-04-25T13:06:19;7.70;;;2.23;;
13327;SDS011;6733;51.044;3.746;2023-04-25T13:08:46;9.37;;;2.47;;
13327;SDS011;6733;51.044;3.746;2023-04-25T13:11:12;7.53;;;2.47;;
13327;SDS011;6733;51.044;3.746;2023-04-25T13:13:40;4.27;;;2.30;;
13327;SDS011;6733;51.044;3.746;2023-04-25T13:16:06;6.50;;;2.13;;
13327;SDS011;6733;51.044;3.746;2023-04-25T13:18:33;7.00;;;2.60;;
13327;SDS011;6733;51.044;3.746;2023-04-25T13:21:00;6.43;;;2.57;;
13327;SDS011;6733;51.044;3.746;2023-04-25T13:23:27;7.20;;;2.47;;
13327;SDS011;6733;51.044;3.746;2023-04-25T13:25:54;7.90;;;2.67;;
13327;SDS011;6733;51.044;3.746;2023-04-25T13:28:26;9.27;;;2.63;;
13327;SDS011;6733;51.044;3.746;2023-04-25T13:30:52;5.27;;;2.40;;
13327;SDS011;6733;51.044;3.746;2023-04-25T13:33:19;7.43;;;2.47;;
13327;SDS011;6733;51.044;3.746;2023-04-25T13:35:46;5.80;;;2.23;;
13327;SDS011;6733;51.044;3.746;2023-04-25T13:38:23;11.23;;;3.17;;
13327;SDS011;6733;51.044;3.746;2023-04-25T13:40:51;11.50;;;3.03;;
13327;SDS011;6733;51.044;3.746;2023-04-25T13:43:20;7.27;;;2.40;;
13327;SDS011;6733;51.044;3.746;2023-04-25T13:45:48;5.67;;;2.30;;
13327;SDS011;6733;51.044;3.746;2023-04-25T13:48:14;8.23;;;2.87;;
13327;SDS011;6733;51.044;3.746;2023-04-25T13:50:40;4.30;;;2.47;;
13327;SDS011;6733;51.044;3.746;2023-04-25T13:53:07;8.27;;;2.47;;
13327;SDS011;6733;51.044;3.746;2023-04-25T13:55:34;10.37;;;2.40;;
13327;SDS011;6733;51.044;3.746;2023-04-25T13:58:02;10.53;;;2.40;;
13327;SDS011;6733;51.044;3.746;2023-04-25T14:00:35;6.03;;;2.70;;
13327;SDS011;6733;51.044;3.746;2023-04-25T14:03:04;4.47;;;2.47;;
13327;SDS011;6733;51.044;3.746;2023-04-25T14:05:33;6.27;;;2.40;;
13327;SDS011;6733;51.044;3.746;2023-04-25T14:08:04;3.70;;;1.90;;
13327;SDS011;6733;51.044;3.746;2023-04-25T14:10:34;5.90;;;2.07;;
13327;SDS011;6733;51.044;3.746;2023-04-25T14:13:01;6.70;;;2.60;;
13327;SDS011;6733;51.044;3.746;2023-04-25T14:15:29;3.60;;;1.80;;
13327;SDS011;6733;51.044;3.746;2023-04-25T14:17:57;4.90;;;2.23;;
13327;SDS011;6733;51.044;3.746;2023-04-25T14:20:24;4.73;;;2.17;;
13327;SDS011;6733;51.044;3.746;2023-04-25T14:22:50;6.37;;;2.30;;
13327;SDS011;6733;51.044;3.746;2023-04-25T14:25:17;3.33;;;2.10;;
13327;SDS011;6733;51.044;3.746;2023-04-25T14:27:43;5.10;;;2.20;;
13327;SDS011;6733;51.044;3.746;2023-04-25T14:30:13;8.27;;;2.30;;
13327;SDS011;6733;51.044;3.746;2023-04-25T14:32:39;7.80;;;2.07;;
13327;SDS011;6733;51.044;3.746;2023-04-25T14:35:06;5.37;;;1.90;;
13327;SDS011;6733;51.044;3.746;2023-04-25T14:37:33;6.17;;;2.67;;
13327;SDS011;6733;51.044;3.746;2023-04-25T14:39:59;4.00;;;1.60;;
13327;SDS011;6733;51.044;3.746;2023-04-25T14:42:25;6.57;;;2.37;;
13327;SDS011;6733;51.044;3.746;2023-04-25T14:44:51;2.63;;;1.77;;
13327;SDS011;6733;51.044;3.746;2023-04-25T14:47:17;5.00;;;2.37;;
13327;SDS011;6733;51.044;3.746;2023-04-25T14:49:44;5.00;;;2.30;;
13327;SDS011;6733;51.044;3.746;2023-04-25T14:52:16;4.67;;;2.30;;
13327;SDS011;6733;51.044;3.746;2023-04-25T14:54:42;4.17;;;2.60;;
13327;SDS011;6733;51.044;3.746;2023-04-25T14:57:08;6.87;;;2.20;;
13327;SDS011;6733;51.044;3.746;2023-04-25T14:59:35;3.47;;;1.97;;
13327;SDS011;6733;51.044;3.746;2023-04-25T15:02:01;5.03;;;2.43;;
13327;SDS011;6733;51.044;3.746;2023-04-25T15:04:27;3.80;;;2.00;;
13327;SDS011;6733;51.044;3.746;2023-04-25T15:06:53;6.50;;;2.43;;
13327;SDS011;6733;51.044;3.746;2023-04-25T15:09:20;5.77;;;2.37;;
13327;SDS011;6733;51.044;3.746;2023-04-25T15:11:46;4.83;;;1.93;;
13327;SDS011;6733;51.044;3.746;2023-04-25T15:14:12;4.87;;;2.60;;
13327;SDS011;6733;51.044;3.746;2023-04-25T15:16:38;7.57;;;2.00;;